sensor_id;sensor_type;location;lat;lon;timestamp;P1;durP1;ratioP1;P2;durP2;ratioP2
56116;SDS011;41989;45.356;20.392;2023-07-08T00:01:57;6.72;;;4.10;;
56116;SDS011;41989;45.356;20.392;2023-07-08T00:04:23;5.43;;;3.60;;
56116;SDS011;41989;45.356;20.392;2023-07-08T00:06:50;9.07;;;4.60;;
56116;SDS011;41989;45.356;20.392;2023-07-08T00:09:17;10.38;;;4.60;;
56116;SDS011;41989;45.356;20.392;2023-07-08T00:11:43;7.65;;;3.88;;
56116;SDS011;41989;45.356;20.392;2023-07-08T00:14:09;10.02;;;4.38;;
56116;SDS011;41989;45.356;20.392;2023-07-08T00:16:35;8.63;;;4.57;;
56116;SDS011;41989;45.356;20.392;2023-07-08T00:19:01;12.75;;;4.45;;
56116;SDS011;41989;45.356;20.392;2023-07-08T00:21:27;8.60;;;4.50;;
56116;SDS011;41989;45.356;20.392;2023-07-08T00:23:54;8.38;;;4.72;;
56116;SDS011;41989;45.356;20.392;2023-07-08T00:26:24;7.80;;;4.35;;
56116;SDS011;41989;45.356;20.392;2023-07-08T00:28:51;8.63;;;4.35;;
56116;SDS011;41989;45.356;20.392;2023-07-08T00:31:17;7.90;;;4.50;;
56116;SDS011;41989;45.356;20.392;2023-07-08T00:33:49;9.20;;;4.75;;
56116;SDS011;41989;45.356;20.392;2023-07-08T00:36:15;6.47;;;4.20;;
56116;SDS011;41989;45.356;20.392;2023-07-08T00:38:44;7.70;;;4.90;;
56116;SDS011;41989;45.356;20.392;2023-07-08T00:41:12;11.35;;;4.95;;
56116;SDS011;41989;45.356;20.392;2023-07-08T00:43:40;10.82;;;4.40;;
56116;SDS011;41989;45.356;20.392;2023-07-08T00:46:17;8.57;;;5.15;;
56116;SDS011;41989;45.356;20.392;2023-07-08T00:48:46;6.63;;;4.18;;
56116;SDS011;41989;45.356;20.392;2023-07-08T00:51:13;10.15;;;4.75;;
56116;SDS011;41989;45.356;20.392;2023-07-08T00:53:39;6.90;;;4.53;;
56116;SDS011;41989;45.356;20.392;2023-07-08T00:58:35;15.45;;;4.38;;
56116;SDS011;41989;45.356;20.392;2023-07-08T01:01:06;9.27;;;5.38;;
56116;SDS011;41989;45.356;20.392;2023-07-08T01:03:34;9.70;;;5.10;;
56116;SDS011;41989;45.356;20.392;2023-07-08T01:06:02;9.13;;;4.60;;
56116;SDS011;41989;45.356;20.392;2023-07-08T01:08:30;8.45;;;4.80;;
56116;SDS011;41989;45.356;20.392;2023-07-08T01:11:01;9.52;;;4.40;;
56116;SDS011;41989;45.356;20.392;2023-07-08T01:13:38;10.93;;;5.28;;
56116;SDS011;41989;45.356;20.392;2023-07-08T01:16:06;11.63;;;4.80;;
56116;SDS011;41989;45.356;20.392;2023-07-08T01:18:32;10.18;;;4.68;;
56116;SDS011;41989;45.356;20.392;2023-07-08T01:21:00;7.72;;;5.00;;
56116;SDS011;41989;45.356;20.392;2023-07-08T01:23:31;7.78;;;5.15;;
56116;SDS011;41989;45.356;20.392;2023-07-08T01:25:57;11.27;;;5.20;;
56116;SDS011;41989;45.356;20.392;2023-07-08T01:28:25;8.85;;;5.03;;
56116;SDS011;41989;45.356;20.392;2023-07-08T01:30:51;7.90;;;4.60;;
56116;SDS011;41989;45.356;20.392;2023-07-08T01:33:19;6.57;;;4.50;;
56116;SDS011;41989;45.356;20.392;2023-07-08T01:35:46;6.97;;;4.28;;
56116;SDS011;41989;45.356;20.392;2023-07-08T01:38:15;9.25;;;4.65;;
56116;SDS011;41989;45.356;20.392;2023-07-08T01:40:53;8.35;;;5.13;;
56116;SDS011;41989;45.356;20.392;2023-07-08T01:43:19;8.90;;;5.68;;
56116;SDS011;41989;45.356;20.392;2023-07-08T01:45:45;10.88;;;5.00;;
56116;SDS011;41989;45.356;20.392;2023-07-08T01:48:14;7.50;;;5.13;;
56116;SDS011;41989;45.356;20.392;2023-07-08T01:51:02;9.73;;;5.18;;
56116;SDS011;41989;45.356;20.392;2023-07-08T01:53:33;10.50;;;5.88;;
56116;SDS011;41989;45.356;20.392;2023-07-08T01:56:00;13.52;;;5.78;;
56116;SDS011;41989;45.356;20.392;2023-07-08T01:58:26;9.35;;;4.88;;
56116;SDS011;41989;45.356;20.392;2023-07-08T02:00:53;8.68;;;5.05;;
56116;SDS011;41989;45.356;20.392;2023-07-08T02:03:19;9.45;;;4.68;;
56116;SDS011;41989;45.356;20.392;2023-07-08T02:05:45;8.88;;;4.63;;
56116;SDS011;41989;45.356;20.392;2023-07-08T02:08:11;12.35;;;5.60;;
56116;SDS011;41989;45.356;20.392;2023-07-08T02:10:38;10.77;;;5.43;;
56116;SDS011;41989;45.356;20.392;2023-07-08T02:13:04;7.72;;;4.40;;
56116;SDS011;41989;45.356;20.392;2023-07-08T02:15:30;10.95;;;5.90;;
56116;SDS011;41989;45.356;20.392;2023-07-08T02:17:57;11.15;;;5.07;;
56116;SDS011;41989;45.356;20.392;2023-07-08T02:20:23;9.50;;;5.28;;
56116;SDS011;41989;45.356;20.392;2023-07-08T02:22:49;9.73;;;4.95;;
56116;SDS011;41989;45.356;20.392;2023-07-08T02:25:15;9.73;;;4.65;;
56116;SDS011;41989;45.356;20.392;2023-07-08T02:27:42;6.68;;;4.72;;
56116;SDS011;41989;45.356;20.392;2023-07-08T02:30:08;9.00;;;4.60;;
56116;SDS011;41989;45.356;20.392;2023-07-08T02:32:35;9.95;;;5.90;;
56116;SDS011;41989;45.356;20.392;2023-07-08T02:35:04;7.57;;;5.38;;
56116;SDS011;41989;45.356;20.392;2023-07-08T02:37:30;7.80;;;4.82;;
56116;SDS011;41989;45.356;20.392;2023-07-08T02:39:58;8.52;;;5.40;;
56116;SDS011;41989;45.356;20.392;2023-07-08T02:42:25;7.80;;;4.47;;
56116;SDS011;41989;45.356;20.392;2023-07-08T02:44:51;8.73;;;5.22;;
56116;SDS011;41989;45.356;20.392;2023-07-08T02:47:17;7.13;;;4.75;;
56116;SDS011;41989;45.356;20.392;2023-07-08T02:49:43;7.28;;;5.28;;
56116;SDS011;41989;45.356;20.392;2023-07-08T02:52:10;12.48;;;5.43;;
56116;SDS011;41989;45.356;20.392;2023-07-08T02:54:37;11.70;;;5.25;;
56116;SDS011;41989;45.356;20.392;2023-07-08T02:57:03;8.48;;;5.20;;
56116;SDS011;41989;45.356;20.392;2023-07-08T02:59:29;8.70;;;5.20;;
56116;SDS011;41989;45.356;20.392;2023-07-08T03:01:55;10.00;;;5.45;;
56116;SDS011;41989;45.356;20.392;2023-07-08T03:04:22;9.45;;;5.85;;
56116;SDS011;41989;45.356;20.392;2023-07-08T03:06:50;9.85;;;5.07;;
56116;SDS011;41989;45.356;20.392;2023-07-08T03:09:16;9.10;;;5.40;;
56116;SDS011;41989;45.356;20.392;2023-07-08T03:11:42;8.40;;;5.05;;
56116;SDS011;41989;45.356;20.392;2023-07-08T03:14:09;8.93;;;4.78;;
56116;SDS011;41989;45.356;20.392;2023-07-08T03:16:35;8.43;;;5.22;;
56116;SDS011;41989;45.356;20.392;2023-07-08T03:19:03;8.82;;;5.60;;
56116;SDS011;41989;45.356;20.392;2023-07-08T03:21:30;8.10;;;5.43;;
56116;SDS011;41989;45.356;20.392;2023-07-08T03:23:56;13.48;;;5.30;;
56116;SDS011;41989;45.356;20.392;2023-07-08T03:26:23;9.90;;;5.32;;
56116;SDS011;41989;45.356;20.392;2023-07-08T03:28:49;9.55;;;5.05;;
56116;SDS011;41989;45.356;20.392;2023-07-08T03:31:16;12.48;;;6.03;;
56116;SDS011;41989;45.356;20.392;2023-07-08T03:33:42;11.65;;;5.93;;
56116;SDS011;41989;45.356;20.392;2023-07-08T03:36:12;10.13;;;5.28;;
56116;SDS011;41989;45.356;20.392;2023-07-08T03:38:47;9.77;;;5.90;;
56116;SDS011;41989;45.356;20.392;2023-07-08T03:41:13;8.23;;;5.18;;
56116;SDS011;41989;45.356;20.392;2023-07-08T03:43:39;8.07;;;5.38;;
56116;SDS011;41989;45.356;20.392;2023-07-08T03:46:07;9.57;;;5.65;;
56116;SDS011;41989;45.356;20.392;2023-07-08T03:48:33;10.75;;;5.55;;
56116;SDS011;41989;45.356;20.392;2023-07-08T03:50:59;8.43;;;5.90;;
56116;SDS011;41989;45.356;20.392;2023-07-08T03:53:25;10.48;;;6.03;;
56116;SDS011;41989;45.356;20.392;2023-07-08T03:55:51;11.98;;;5.72;;
56116;SDS011;41989;45.356;20.392;2023-07-08T03:58:17;9.10;;;5.15;;
56116;SDS011;41989;45.356;20.392;2023-07-08T04:00:43;12.55;;;5.85;;
56116;SDS011;41989;45.356;20.392;2023-07-08T04:03:10;10.35;;;6.10;;
56116;SDS011;41989;45.356;20.392;2023-07-08T04:05:36;13.27;;;6.07;;
56116;SDS011;41989;45.356;20.392;2023-07-08T04:08:03;9.38;;;5.00;;
56116;SDS011;41989;45.356;20.392;2023-07-08T04:10:29;12.52;;;5.88;;
56116;SDS011;41989;45.356;20.392;2023-07-08T04:12:55;13.55;;;5.55;;
56116;SDS011;41989;45.356;20.392;2023-07-08T04:15:21;12.05;;;6.43;;
56116;SDS011;41989;45.356;20.392;2023-07-08T04:17:50;10.45;;;5.70;;
56116;SDS011;41989;45.356;20.392;2023-07-08T04:20:17;8.77;;;5.22;;
56116;SDS011;41989;45.356;20.392;2023-07-08T04:22:44;8.35;;;5.40;;
56116;SDS011;41989;45.356;20.392;2023-07-08T04:25:11;10.48;;;5.40;;
56116;SDS011;41989;45.356;20.392;2023-07-08T04:27:38;9.02;;;5.45;;
56116;SDS011;41989;45.356;20.392;2023-07-08T04:30:05;12.38;;;5.47;;
56116;SDS011;41989;45.356;20.392;2023-07-08T04:32:31;7.88;;;5.28;;
56116;SDS011;41989;45.356;20.392;2023-07-08T04:34:58;9.70;;;6.07;;
56116;SDS011;41989;45.356;20.392;2023-07-08T04:37:24;7.80;;;5.18;;
56116;SDS011;41989;45.356;20.392;2023-07-08T04:39:51;10.68;;;5.70;;
56116;SDS011;41989;45.356;20.392;2023-07-08T04:42:19;8.50;;;5.05;;
56116;SDS011;41989;45.356;20.392;2023-07-08T04:44:48;8.60;;;4.97;;
56116;SDS011;41989;45.356;20.392;2023-07-08T04:47:14;9.48;;;5.50;;
56116;SDS011;41989;45.356;20.392;2023-07-08T04:49:40;9.63;;;5.68;;
56116;SDS011;41989;45.356;20.392;2023-07-08T04:52:08;12.95;;;5.70;;
56116;SDS011;41989;45.356;20.392;2023-07-08T04:54:35;8.95;;;5.40;;
56116;SDS011;41989;45.356;20.392;2023-07-08T04:57:01;8.43;;;5.35;;
56116;SDS011;41989;45.356;20.392;2023-07-08T04:59:27;9.57;;;5.20;;
56116;SDS011;41989;45.356;20.392;2023-07-08T05:01:53;11.57;;;5.22;;
56116;SDS011;41989;45.356;20.392;2023-07-08T05:04:20;9.43;;;5.68;;
56116;SDS011;41989;45.356;20.392;2023-07-08T05:06:46;12.57;;;6.05;;
56116;SDS011;41989;45.356;20.392;2023-07-08T05:09:12;12.25;;;5.75;;
56116;SDS011;41989;45.356;20.392;2023-07-08T05:11:38;8.02;;;5.28;;
56116;SDS011;41989;45.356;20.392;2023-07-08T05:14:04;10.60;;;5.60;;
56116;SDS011;41989;45.356;20.392;2023-07-08T05:16:32;18.00;;;5.97;;
56116;SDS011;41989;45.356;20.392;2023-07-08T05:18:58;12.80;;;6.35;;
56116;SDS011;41989;45.356;20.392;2023-07-08T05:21:24;10.95;;;5.90;;
56116;SDS011;41989;45.356;20.392;2023-07-08T05:23:52;10.15;;;5.72;;
56116;SDS011;41989;45.356;20.392;2023-07-08T05:26:19;9.95;;;5.75;;
56116;SDS011;41989;45.356;20.392;2023-07-08T05:28:45;9.88;;;5.93;;
56116;SDS011;41989;45.356;20.392;2023-07-08T05:31:11;18.60;;;7.22;;
56116;SDS011;41989;45.356;20.392;2023-07-08T05:33:37;15.90;;;5.32;;
56116;SDS011;41989;45.356;20.392;2023-07-08T05:36:03;10.60;;;5.40;;
56116;SDS011;41989;45.356;20.392;2023-07-08T05:38:30;10.50;;;5.75;;
56116;SDS011;41989;45.356;20.392;2023-07-08T05:40:57;13.55;;;5.63;;
56116;SDS011;41989;45.356;20.392;2023-07-08T05:43:23;8.95;;;4.85;;
56116;SDS011;41989;45.356;20.392;2023-07-08T05:45:49;10.55;;;5.18;;
56116;SDS011;41989;45.356;20.392;2023-07-08T05:48:16;16.02;;;5.10;;
56116;SDS011;41989;45.356;20.392;2023-07-08T05:50:42;6.72;;;4.43;;
56116;SDS011;41989;45.356;20.392;2023-07-08T05:53:11;8.82;;;4.82;;
56116;SDS011;41989;45.356;20.392;2023-07-08T05:55:42;11.77;;;4.35;;
56116;SDS011;41989;45.356;20.392;2023-07-08T05:58:08;10.73;;;4.90;;
56116;SDS011;41989;45.356;20.392;2023-07-08T06:00:35;6.93;;;4.00;;
56116;SDS011;41989;45.356;20.392;2023-07-08T06:03:01;7.65;;;4.10;;
56116;SDS011;41989;45.356;20.392;2023-07-08T06:05:27;6.13;;;4.15;;
56116;SDS011;41989;45.356;20.392;2023-07-08T06:07:54;6.60;;;3.88;;
56116;SDS011;41989;45.356;20.392;2023-07-08T06:10:20;8.23;;;4.13;;
56116;SDS011;41989;45.356;20.392;2023-07-08T06:12:46;8.80;;;3.70;;
56116;SDS011;41989;45.356;20.392;2023-07-08T06:15:12;8.02;;;4.45;;
56116;SDS011;41989;45.356;20.392;2023-07-08T06:17:38;9.20;;;3.67;;
56116;SDS011;41989;45.356;20.392;2023-07-08T06:20:04;14.02;;;4.45;;
56116;SDS011;41989;45.356;20.392;2023-07-08T06:22:30;13.30;;;4.00;;
56116;SDS011;41989;45.356;20.392;2023-07-08T06:24:56;12.02;;;4.00;;
56116;SDS011;41989;45.356;20.392;2023-07-08T06:27:22;13.25;;;4.47;;
56116;SDS011;41989;45.356;20.392;2023-07-08T06:29:50;18.50;;;4.60;;
56116;SDS011;41989;45.356;20.392;2023-07-08T06:32:16;8.25;;;3.83;;
56116;SDS011;41989;45.356;20.392;2023-07-08T06:34:42;10.75;;;3.88;;
56116;SDS011;41989;45.356;20.392;2023-07-08T06:37:08;8.88;;;4.32;;
56116;SDS011;41989;45.356;20.392;2023-07-08T06:39:34;13.20;;;4.00;;
56116;SDS011;41989;45.356;20.392;2023-07-08T06:42:00;15.70;;;3.70;;
56116;SDS011;41989;45.356;20.392;2023-07-08T06:44:26;10.70;;;3.60;;
56116;SDS011;41989;45.356;20.392;2023-07-08T06:46:53;6.45;;;3.05;;
56116;SDS011;41989;45.356;20.392;2023-07-08T06:49:19;6.90;;;3.47;;
56116;SDS011;41989;45.356;20.392;2023-07-08T06:51:45;7.05;;;3.97;;
56116;SDS011;41989;45.356;20.392;2023-07-08T06:54:13;6.90;;;3.65;;
56116;SDS011;41989;45.356;20.392;2023-07-08T06:56:42;9.35;;;3.60;;
56116;SDS011;41989;45.356;20.392;2023-07-08T06:59:08;10.07;;;3.28;;
56116;SDS011;41989;45.356;20.392;2023-07-08T07:01:34;10.25;;;3.30;;
56116;SDS011;41989;45.356;20.392;2023-07-08T07:04:02;12.93;;;3.88;;
56116;SDS011;41989;45.356;20.392;2023-07-08T07:06:28;8.02;;;3.33;;
56116;SDS011;41989;45.356;20.392;2023-07-08T07:08:54;6.20;;;3.08;;
56116;SDS011;41989;45.356;20.392;2023-07-08T07:11:20;6.47;;;2.58;;
56116;SDS011;41989;45.356;20.392;2023-07-08T07:13:46;8.70;;;2.95;;
56116;SDS011;41989;45.356;20.392;2023-07-08T07:16:13;12.32;;;3.72;;
56116;SDS011;41989;45.356;20.392;2023-07-08T07:18:39;4.63;;;2.80;;
56116;SDS011;41989;45.356;20.392;2023-07-08T07:21:05;8.10;;;3.38;;
56116;SDS011;41989;45.356;20.392;2023-07-08T07:23:33;6.60;;;2.70;;
56116;SDS011;41989;45.356;20.392;2023-07-08T07:25:59;4.78;;;2.58;;
56116;SDS011;41989;45.356;20.392;2023-07-08T07:28:25;4.22;;;2.50;;
56116;SDS011;41989;45.356;20.392;2023-07-08T07:30:58;6.75;;;2.60;;
56116;SDS011;41989;45.356;20.392;2023-07-08T07:33:25;6.90;;;2.83;;
56116;SDS011;41989;45.356;20.392;2023-07-08T07:35:51;4.30;;;2.55;;
56116;SDS011;41989;45.356;20.392;2023-07-08T07:38:17;6.28;;;2.72;;
56116;SDS011;41989;45.356;20.392;2023-07-08T07:40:43;9.13;;;2.33;;
56116;SDS011;41989;45.356;20.392;2023-07-08T07:43:09;8.63;;;2.45;;
56116;SDS011;41989;45.356;20.392;2023-07-08T07:45:36;5.93;;;2.03;;
56116;SDS011;41989;45.356;20.392;2023-07-08T07:48:02;10.77;;;2.92;;
56116;SDS011;41989;45.356;20.392;2023-07-08T07:50:31;5.20;;;2.42;;
56116;SDS011;41989;45.356;20.392;2023-07-08T07:52:57;4.15;;;2.20;;
56116;SDS011;41989;45.356;20.392;2023-07-08T07:55:24;20.27;;;4.30;;
56116;SDS011;41989;45.356;20.392;2023-07-08T07:57:51;5.20;;;2.20;;
56116;SDS011;41989;45.356;20.392;2023-07-08T08:00:17;8.77;;;1.92;;
56116;SDS011;41989;45.356;20.392;2023-07-08T08:02:43;4.57;;;1.83;;
56116;SDS011;41989;45.356;20.392;2023-07-08T08:05:09;5.50;;;2.10;;
56116;SDS011;41989;45.356;20.392;2023-07-08T08:07:35;6.88;;;2.10;;
56116;SDS011;41989;45.356;20.392;2023-07-08T08:10:01;5.75;;;2.13;;
56116;SDS011;41989;45.356;20.392;2023-07-08T08:12:30;5.67;;;2.27;;
56116;SDS011;41989;45.356;20.392;2023-07-08T08:14:56;3.97;;;1.70;;
56116;SDS011;41989;45.356;20.392;2023-07-08T08:17:22;8.63;;;1.98;;
56116;SDS011;41989;45.356;20.392;2023-07-08T08:19:48;5.70;;;2.00;;
56116;SDS011;41989;45.356;20.392;2023-07-08T08:22:17;3.83;;;1.60;;
56116;SDS011;41989;45.356;20.392;2023-07-08T08:24:43;5.97;;;2.20;;
56116;SDS011;41989;45.356;20.392;2023-07-08T08:27:09;6.05;;;2.08;;
56116;SDS011;41989;45.356;20.392;2023-07-08T08:29:35;5.22;;;2.03;;
56116;SDS011;41989;45.356;20.392;2023-07-08T08:32:10;4.28;;;1.70;;
56116;SDS011;41989;45.356;20.392;2023-07-08T08:34:36;4.82;;;2.10;;
56116;SDS011;41989;45.356;20.392;2023-07-08T08:37:03;17.92;;;4.03;;
56116;SDS011;41989;45.356;20.392;2023-07-08T08:39:29;7.00;;;2.90;;
56116;SDS011;41989;45.356;20.392;2023-07-08T08:41:57;3.80;;;2.70;;
56116;SDS011;41989;45.356;20.392;2023-07-08T08:44:28;6.35;;;2.60;;
56116;SDS011;41989;45.356;20.392;2023-07-08T08:47:11;4.80;;;2.10;;
56116;SDS011;41989;45.356;20.392;2023-07-08T08:50:18;7.60;;;2.28;;
56116;SDS011;41989;45.356;20.392;2023-07-08T08:52:35;3.83;;;2.10;;
56116;SDS011;41989;45.356;20.392;2023-07-08T08:55:04;2.83;;;1.60;;
56116;SDS011;41989;45.356;20.392;2023-07-08T08:57:41;6.88;;;2.25;;
56116;SDS011;41989;45.356;20.392;2023-07-08T09:00:09;7.80;;;2.20;;
56116;SDS011;41989;45.356;20.392;2023-07-08T09:02:41;5.97;;;2.15;;
56116;SDS011;41989;45.356;20.392;2023-07-08T09:05:08;2.88;;;1.85;;
56116;SDS011;41989;45.356;20.392;2023-07-08T09:10:15;7.22;;;2.28;;
56116;SDS011;41989;45.356;20.392;2023-07-08T09:12:45;6.03;;;2.20;;
56116;SDS011;41989;45.356;20.392;2023-07-08T09:15:12;6.88;;;2.00;;
56116;SDS011;41989;45.356;20.392;2023-07-08T09:17:39;2.63;;;1.88;;
56116;SDS011;41989;45.356;20.392;2023-07-08T09:22:44;3.67;;;2.10;;
56116;SDS011;41989;45.356;20.392;2023-07-08T09:27:41;3.65;;;1.95;;
56116;SDS011;41989;45.356;20.392;2023-07-08T09:30:13;3.97;;;2.15;;
56116;SDS011;41989;45.356;20.392;2023-07-08T09:32:39;6.43;;;2.28;;
56116;SDS011;41989;45.356;20.392;2023-07-08T09:35:06;6.60;;;1.95;;
56116;SDS011;41989;45.356;20.392;2023-07-08T09:37:35;7.95;;;2.55;;
56116;SDS011;41989;45.356;20.392;2023-07-08T09:40:15;5.78;;;1.98;;
56116;SDS011;41989;45.356;20.392;2023-07-08T09:42:41;7.72;;;2.42;;
56116;SDS011;41989;45.356;20.392;2023-07-08T09:45:11;3.38;;;1.80;;
56116;SDS011;41989;45.356;20.392;2023-07-08T09:47:38;3.97;;;2.20;;
56116;SDS011;41989;45.356;20.392;2023-07-08T09:50:18;4.32;;;1.63;;
56116;SDS011;41989;45.356;20.392;2023-07-08T09:52:46;4.88;;;2.25;;
56116;SDS011;41989;45.356;20.392;2023-07-08T09:55:12;3.00;;;1.85;;
56116;SDS011;41989;45.356;20.392;2023-07-08T09:57:41;3.13;;;1.67;;
56116;SDS011;41989;45.356;20.392;2023-07-08T10:00:11;4.18;;;1.80;;
56116;SDS011;41989;45.356;20.392;2023-07-08T10:02:42;5.10;;;1.83;;
56116;SDS011;41989;45.356;20.392;2023-07-08T10:05:16;4.55;;;1.35;;
56116;SDS011;41989;45.356;20.392;2023-07-08T10:07:43;6.00;;;2.00;;
56116;SDS011;41989;45.356;20.392;2023-07-08T10:10:13;3.33;;;2.10;;
56116;SDS011;41989;45.356;20.392;2023-07-08T10:12:41;5.85;;;1.98;;
56116;SDS011;41989;45.356;20.392;2023-07-08T10:18:13;2.72;;;1.60;;
56116;SDS011;41989;45.356;20.392;2023-07-08T10:20:48;2.65;;;1.65;;
56116;SDS011;41989;45.356;20.392;2023-07-08T10:25:49;9.10;;;2.28;;
56116;SDS011;41989;45.356;20.392;2023-07-08T10:28:32;5.53;;;1.67;;
56116;SDS011;41989;45.356;20.392;2023-07-08T10:31:06;4.45;;;1.75;;
56116;SDS011;41989;45.356;20.392;2023-07-08T10:38:59;4.50;;;1.70;;
56116;SDS011;41989;45.356;20.392;2023-07-08T10:41:31;2.80;;;1.75;;
56116;SDS011;41989;45.356;20.392;2023-07-08T10:44:07;5.07;;;1.80;;
56116;SDS011;41989;45.356;20.392;2023-07-08T10:47:12;8.07;;;1.90;;
56116;SDS011;41989;45.356;20.392;2023-07-08T10:57:09;6.43;;;2.17;;
56116;SDS011;41989;45.356;20.392;2023-07-08T11:04:47;4.13;;;2.03;;
56116;SDS011;41989;45.356;20.392;2023-07-08T11:10:05;4.68;;;1.50;;
56116;SDS011;41989;45.356;20.392;2023-07-08T11:13:11;6.72;;;1.60;;
56116;SDS011;41989;45.356;20.392;2023-07-08T11:15:37;4.10;;;2.13;;
56116;SDS011;41989;45.356;20.392;2023-07-08T11:18:07;4.30;;;1.70;;
56116;SDS011;41989;45.356;20.392;2023-07-08T11:20:43;8.88;;;2.28;;
56116;SDS011;41989;45.356;20.392;2023-07-08T11:23:15;6.75;;;1.98;;
56116;SDS011;41989;45.356;20.392;2023-07-08T11:25:45;4.10;;;1.90;;
56116;SDS011;41989;45.356;20.392;2023-07-08T11:28:13;2.85;;;1.77;;
56116;SDS011;41989;45.356;20.392;2023-07-08T11:30:41;3.63;;;2.53;;
56116;SDS011;41989;45.356;20.392;2023-07-08T11:33:11;3.42;;;1.80;;
56116;SDS011;41989;45.356;20.392;2023-07-08T11:35:48;7.18;;;1.67;;
56116;SDS011;41989;45.356;20.392;2023-07-08T11:38:15;5.00;;;1.70;;
56116;SDS011;41989;45.356;20.392;2023-07-08T11:43:17;8.35;;;2.10;;
56116;SDS011;41989;45.356;20.392;2023-07-08T11:45:44;4.47;;;1.83;;
56116;SDS011;41989;45.356;20.392;2023-07-08T11:49:12;6.10;;;2.03;;
56116;SDS011;41989;45.356;20.392;2023-07-08T11:51:06;4.65;;;1.90;;
56116;SDS011;41989;45.356;20.392;2023-07-08T11:53:37;2.72;;;1.48;;
56116;SDS011;41989;45.356;20.392;2023-07-08T12:01:48;5.68;;;1.30;;
56116;SDS011;41989;45.356;20.392;2023-07-08T12:07:02;2.93;;;2.07;;
56116;SDS011;41989;45.356;20.392;2023-07-08T12:09:35;4.55;;;1.52;;
56116;SDS011;41989;45.356;20.392;2023-07-08T12:12:02;5.35;;;1.55;;
56116;SDS011;41989;45.356;20.392;2023-07-08T12:14:30;4.13;;;1.92;;
56116;SDS011;41989;45.356;20.392;2023-07-08T12:16:57;3.60;;;1.67;;
56116;SDS011;41989;45.356;20.392;2023-07-08T12:19:23;5.60;;;1.60;;
56116;SDS011;41989;45.356;20.392;2023-07-08T12:21:51;1.83;;;1.40;;
56116;SDS011;41989;45.356;20.392;2023-07-08T12:24:18;2.85;;;1.50;;
56116;SDS011;41989;45.356;20.392;2023-07-08T12:26:50;3.22;;;2.00;;
56116;SDS011;41989;45.356;20.392;2023-07-08T12:29:16;7.63;;;1.60;;
56116;SDS011;41989;45.356;20.392;2023-07-08T12:31:42;3.60;;;1.65;;
56116;SDS011;41989;45.356;20.392;2023-07-08T12:34:12;2.72;;;1.73;;
56116;SDS011;41989;45.356;20.392;2023-07-08T12:36:40;4.78;;;1.65;;
56116;SDS011;41989;45.356;20.392;2023-07-08T12:39:07;3.78;;;1.70;;
56116;SDS011;41989;45.356;20.392;2023-07-08T12:41:35;2.20;;;1.50;;
56116;SDS011;41989;45.356;20.392;2023-07-08T12:44:01;3.42;;;1.88;;
56116;SDS011;41989;45.356;20.392;2023-07-08T12:46:28;3.42;;;1.40;;
56116;SDS011;41989;45.356;20.392;2023-07-08T12:48:54;5.97;;;1.95;;
56116;SDS011;41989;45.356;20.392;2023-07-08T12:51:21;3.78;;;1.63;;
56116;SDS011;41989;45.356;20.392;2023-07-08T12:53:48;7.57;;;1.75;;
56116;SDS011;41989;45.356;20.392;2023-07-08T12:56:15;3.80;;;1.63;;
56116;SDS011;41989;45.356;20.392;2023-07-08T12:58:42;6.60;;;2.25;;
56116;SDS011;41989;45.356;20.392;2023-07-08T13:01:10;6.10;;;1.60;;
56116;SDS011;41989;45.356;20.392;2023-07-08T13:06:04;6.63;;;1.80;;
56116;SDS011;41989;45.356;20.392;2023-07-08T13:08:34;4.35;;;1.70;;
56116;SDS011;41989;45.356;20.392;2023-07-08T13:11:00;3.75;;;1.70;;
56116;SDS011;41989;45.356;20.392;2023-07-08T13:13:30;5.37;;;1.90;;
56116;SDS011;41989;45.356;20.392;2023-07-08T13:15:57;5.82;;;1.67;;
56116;SDS011;41989;45.356;20.392;2023-07-08T13:20:55;9.05;;;1.92;;
56116;SDS011;41989;45.356;20.392;2023-07-08T13:23:21;3.83;;;1.35;;
56116;SDS011;41989;45.356;20.392;2023-07-08T13:25:51;3.58;;;1.80;;
56116;SDS011;41989;45.356;20.392;2023-07-08T13:30:56;5.90;;;1.70;;
56116;SDS011;41989;45.356;20.392;2023-07-08T13:33:23;4.75;;;1.73;;
56116;SDS011;41989;45.356;20.392;2023-07-08T13:35:51;3.25;;;1.63;;
56116;SDS011;41989;45.356;20.392;2023-07-08T13:38:21;3.40;;;1.67;;
56116;SDS011;41989;45.356;20.392;2023-07-08T13:40:49;3.47;;;1.52;;
56116;SDS011;41989;45.356;20.392;2023-07-08T13:43:15;3.60;;;1.50;;
56116;SDS011;41989;45.356;20.392;2023-07-08T13:45:45;5.40;;;1.40;;
56116;SDS011;41989;45.356;20.392;2023-07-08T13:48:19;4.43;;;1.60;;
56116;SDS011;41989;45.356;20.392;2023-07-08T13:51:01;4.20;;;1.45;;
56116;SDS011;41989;45.356;20.392;2023-07-08T13:58:41;3.33;;;1.40;;
56116;SDS011;41989;45.356;20.392;2023-07-08T14:01:10;4.82;;;1.50;;
56116;SDS011;41989;45.356;20.392;2023-07-08T14:03:40;1.88;;;1.40;;
56116;SDS011;41989;45.356;20.392;2023-07-08T14:06:10;3.75;;;1.85;;
56116;SDS011;41989;45.356;20.392;2023-07-08T14:08:37;8.52;;;2.60;;
56116;SDS011;41989;45.356;20.392;2023-07-08T14:11:03;5.07;;;1.70;;
56116;SDS011;41989;45.356;20.392;2023-07-08T14:13:29;6.32;;;1.55;;
56116;SDS011;41989;45.356;20.392;2023-07-08T14:15:55;5.00;;;2.03;;
56116;SDS011;41989;45.356;20.392;2023-07-08T14:18:21;3.65;;;1.40;;
56116;SDS011;41989;45.356;20.392;2023-07-08T14:20:47;2.70;;;1.77;;
56116;SDS011;41989;45.356;20.392;2023-07-08T14:23:14;5.15;;;1.70;;
56116;SDS011;41989;45.356;20.392;2023-07-08T14:25:40;5.00;;;1.80;;
56116;SDS011;41989;45.356;20.392;2023-07-08T14:28:06;4.95;;;1.65;;
56116;SDS011;41989;45.356;20.392;2023-07-08T14:30:34;4.57;;;2.08;;
56116;SDS011;41989;45.356;20.392;2023-07-08T14:33:03;8.00;;;2.20;;
56116;SDS011;41989;45.356;20.392;2023-07-08T14:35:31;4.38;;;1.60;;
56116;SDS011;41989;45.356;20.392;2023-07-08T14:37:57;7.53;;;1.88;;
56116;SDS011;41989;45.356;20.392;2023-07-08T14:42:58;6.57;;;2.60;;
56116;SDS011;41989;45.356;20.392;2023-07-08T14:45:24;7.95;;;3.05;;
56116;SDS011;41989;45.356;20.392;2023-07-08T14:47:50;5.82;;;2.60;;
56116;SDS011;41989;45.356;20.392;2023-07-08T14:50:16;14.68;;;7.57;;
56116;SDS011;41989;45.356;20.392;2023-07-08T14:52:43;19.50;;;14.10;;
56116;SDS011;41989;45.356;20.392;2023-07-08T14:55:09;22.55;;;15.80;;
56116;SDS011;41989;45.356;20.392;2023-07-08T14:57:40;4.63;;;3.08;;
56116;SDS011;41989;45.356;20.392;2023-07-08T15:00:10;7.03;;;2.33;;
56116;SDS011;41989;45.356;20.392;2023-07-08T15:02:36;7.32;;;2.97;;
56116;SDS011;41989;45.356;20.392;2023-07-08T15:05:16;8.98;;;4.25;;
56116;SDS011;41989;45.356;20.392;2023-07-08T15:07:43;7.22;;;4.85;;
56116;SDS011;41989;45.356;20.392;2023-07-08T15:10:09;7.10;;;4.70;;
56116;SDS011;41989;45.356;20.392;2023-07-08T15:12:35;13.98;;;4.78;;
56116;SDS011;41989;45.356;20.392;2023-07-08T15:15:01;9.82;;;5.13;;
56116;SDS011;41989;45.356;20.392;2023-07-08T15:17:27;7.97;;;4.90;;
56116;SDS011;41989;45.356;20.392;2023-07-08T15:19:54;4.60;;;2.40;;
56116;SDS011;41989;45.356;20.392;2023-07-08T15:22:20;5.57;;;2.40;;
56116;SDS011;41989;45.356;20.392;2023-07-08T15:24:46;5.50;;;2.38;;
56116;SDS011;41989;45.356;20.392;2023-07-08T15:27:12;6.07;;;2.40;;
56116;SDS011;41989;45.356;20.392;2023-07-08T15:29:39;3.15;;;1.70;;
56116;SDS011;41989;45.356;20.392;2023-07-08T15:32:11;6.57;;;2.70;;
56116;SDS011;41989;45.356;20.392;2023-07-08T15:34:38;11.93;;;3.45;;
56116;SDS011;41989;45.356;20.392;2023-07-08T15:37:05;12.13;;;6.35;;
56116;SDS011;41989;45.356;20.392;2023-07-08T15:39:31;10.80;;;5.40;;